Racecast

Bri Pauli

Temperance Bedford (MI) · 12 · SECMI D1MONROE · Compare head to head

Athlete rating 126.5 2018 XC season
Best race 126.4 XC
Races 54
Seasons 5 2015 — 2019

RankedNation #12495·MI #1605·MI D1 #967·SEC #109·Team #48 ?

Cross Country

2018 XC 120.1

Temperance Bedford (MI) · Grade 12

Date Meet Event Result Place Rating Difficulty PR/SR Flags
2018-10-27 Lake Erie Metro Park OFFICIAL 5000m 22:28.3 24th · 4th on team 122.0 +0.055
2018-10-18 Hudson Mills Metropark - OFFICIAL 5000m 21:58.5 31st · 5th on team 122.1 +0.036 SR CSR
2018-10-13 Munson Park 5000m 22:08.8 14th · 6th on team 123.0 +0.054 ★CR CSR
2018-10-09 Indian Creek OFFICIAL 5000m 22:53 4th · 4th on team 120.0 +0.039 CSR
2018-09-29 Lake Erie Metro Park OFFICIAL 5000m 22:17.6 10th · 5th on team 122.9 +0.055 CSR
2018-09-25 Cass Benton Park OFFICIAL 5000m 23:02 31st · 3rd on team 122.8 +0.091 ★CR CSR
2018-09-21 Ella Sharp Park OFFICIAL 5000m 22:05.8 8th · 2nd on team 123.4 +0.038 ★CR SR CSR RSR
2018-09-08 Hedges Boyer Park 5000m 22:32.8 126th · 7th on team 111.9 -0.036 SR CSR
2018-09-06 Willow Metropark OFFICIAL 5000m 23:54.3 92nd · 9th on team 113.1 +0.048 ★CR SR CSR RSR

2017 XC 119.4

Temperance Bedford (MI) · Grade 11

Date Meet Event Result Place Rating Difficulty PR/SR Flags
2017-10-28 Lake Erie Metro Park OFFICIAL 5000m 21:39.6 13th · 1st on team 126.1 +0.055 ★CR CSR RSR
2017-10-19 Hudson Mills Metropark - OFFICIAL 5000m 21:44 13th · 1st on team 124.5 +0.036 ★CR CSR
2017-10-10 Indian Creek OFFICIAL 5000m 21:39.5 2nd · 2nd on team 124.9 +0.039 ★PR ★CR SR CSR RSR
2017-10-07 Portage West MS 5000m 22:51.2 71st · 3rd on team 119.3 +0.038 CSR
2017-09-30 Lake Erie Metro Park OFFICIAL 5000m 22:13.6 4th · 3rd on team 122.3 +0.055 PR CR SR CSR RSR
2017-09-22 Ella Sharp Park OFFICIAL 5000m 23:03.6 24th · 2nd on team 119.4 +0.038 CR CSR RSR
2017-09-12 Hudson Mills Metropark - OFFICIAL 5000m 22:51.5 77th · 9th on team 117.8 +0.036 CSR RSR
2017-09-09 Hedges Boyer Park 5000m 22:25.9 74th · 3rd on team 111.7 -0.036 ★CR SR CSR RSR
2017-08-26 Boy Scout Camp Lakota 5000m 23:47.9 71st · 13th on team 108.5 -0.003 SR CSR RSR

2016 XC 115.3

Temperance Bedford (MI) · Grade 10

Date Meet Event Result Place Rating Difficulty PR/SR Flags
2016-10-29 Lake Erie Metro Park OFFICIAL 5000m 22:49.8 19th · 1st on team 120.3 +0.055 CR CSR
2016-10-20 Hudson Mills Metropark - OFFICIAL 5000m 22:43.1 29th · 2nd on team 118.1 +0.036 CR CSR
2016-10-15 Hudson Mills Metropark - OFFICIAL 5000m 24:32.8 77th · 11th on team 110.4 +0.036 CR CSR
2016-10-08 Portage West MS 5000m 22:20 251st · 7th on team 120.8 +0.038 ★CR CSR
2016-10-01 Pearson's Metro Park 5000m 22:30.1 3rd · 1st on team 112.6 -0.022 ★CR CSR
2016-09-27 Pioneer HS 5000m 25:25.9 51st · 9th on team 110.0 +0.067 ★CR CSR
2016-09-13 Heritage Park (Adrian) OFFICIAL 5000m 22:19.6 43rd · 3rd on team 126.4 +0.084 PR ★CR ★R SR CSR RSR
2016-09-10 Hedges Boyer Park 5000m 22:41.2 181st · 5th on team 111.0 -0.036 PR CR SR CSR
2016-08-27 Boy Scout Camp Lakota 5000m 22:53.1 27th · 4th on team 113.0 -0.003 PR ★CR SR CSR RSR
2016-08-25 Heritage Park (Adrian) OFFICIAL 5000m 25:31.8 47th · 6th on team 110.5 +0.084 CR SR CSR RSR

2015 XC 106.6

Temperance Bedford (MI) · Grade 9

Date Meet Event Result Place Rating Difficulty PR/SR Flags
2015-10-31 Lake Erie Metro Park OFFICIAL 5000m 24:59.3 94th · 16th on team 108.9 +0.055 PR CR R SR CSR RSR
2015-10-22 Hudson Mills Metropark - OFFICIAL 5000m 25:41.1 120th · 17th on team 104.3 +0.036 PR CR R SR CSR RSR

Track & Field

2019 TF 114.5

Temperance Bedford (MI) · Grade 12

Date Meet Event Result Place Rating Difficulty PR/SR Flags
2019-05-25 2019 MITCA Division 1 Team State Meet 800m 2:43.08 23rd · 2nd on team 114.2 -0.026
2019-05-17 MHSAA LP Region 04-1 @ Saline 800m 2:37.37 17th · 2nd on team 115.9 -0.042 ★PR SR
2019-05-15 22nd River Rat Girls JV Invite 800m 2:41.38 4th · 3rd on team 114.2 -0.034
2019-05-15 22nd River Rat Girls JV Invite 1600m 5:50.98 9th · 4th on team 117.7 -0.034 ★PR SR
2019-05-10 SEC Red Divisional Championship Meet 1600m 5:55.93 16th · 5th on team 116.5 -0.032
2019-05-10 SEC Red Divisional Championship Meet 800m 2:41.67 13th · 1st on team 114.7 -0.032
2019-04-30 SEC-R: Monroe & Bedford @ Skyline 1600m 6:01.79 8th · 5th on team 114.1 -0.033
2019-04-23 SEC Red Division - Bedford vs Saline 1600m 5:53.56 8th · 4th on team 117.7 -0.033 SR RSR
2019-04-23 SEC Red Division - Bedford vs Saline 800m 2:43.48 10th · 2nd on team 113.7 -0.033
2019-04-09 SEC-R: Bedford @ Pioneer 800m 2:49.19 7th · 3rd on team 109.9 -0.028
2019-04-09 SEC-R: Bedford @ Pioneer 1600m 6:11.04 7th · 4th on team 112.3 -0.028
2019-04-05 Whitmer Golden W Invitational 800m 2:39.19 6th · 1st on team 114.3 -0.040 PR SR RSR
2019-03-23 Bedford @ Ida Scrimmage 1600m 6:10.11 4th · 4th on team 112.9 -0.022 SR RSR

2017 TF 108.8

Temperance Bedford (MI) · Grade 10

Date Meet Event Result Place Rating Difficulty PR/SR Flags
2017-05-17 River Rat GIRLS JV Invite 800m 2:58.54 16th · 2nd on team 103.2 -0.034 SR
2017-05-17 River Rat GIRLS JV Invite 1600m 6:08.32 8th · 1st on team 112.6 -0.034 RSR
2017-05-17 River Rat GIRLS JV Invite 3200m 14:29.71 5th · 2nd on team 103.8 -0.034 ★PR SR
2017-04-25 SEC Red: Bedford @ Skyline 1600m 6:06.6 8th · 6th on team 112.2 -0.033 SR RSR
2017-03-28 SEC Red: Bedford @ Pioneer 1600m 6:09.11 7th · 3rd on team 112.2 -0.028 SR RSR

2016 TF 109.8

Temperance Bedford (MI) · Grade 9

Date Meet Event Result Place Rating Difficulty PR/SR Flags
2016-05-13 SEC Red Division Finals 1600m 5:53.15 15th · 5th on team 116.8 -0.033 PR R SR RSR
2016-05-03 SEC Tri: Huron/Skyline @ Bedford 800m 2:49.73 8th · 4th on team 107.0 -0.033 PR SR
2016-05-03 SEC Tri: Huron/Skyline @ Bedford 1600m 6:07.89 10th · 5th on team 111.2 -0.033
2016-04-26 Bedford @ Monroe 800m 3:00.7 10th · 7th on team 101.3 -0.032 PR SR
2016-04-26 Bedford @ Monroe 1600m 6:03.6 8th · 5th on team 113.2 -0.032 PR R SR RSR
2016-04-12 SEC: Bedford @ Pioneer 1600m 6:18.87 9th · 5th on team 109.2 -0.028 PR R SR RSR